sensor_id;sensor_type;location;lat;lon;timestamp;pressure;altitude;pressure_sealevel;temperature;humidity
11710;BME280;5911;51.036;6.972;2023-07-29T00:02:22;99964.72;;;21.23;100.00
11710;BME280;5911;51.036;6.972;2023-07-29T00:04:50;99973.16;;;21.33;100.00
11710;BME280;5911;51.036;6.972;2023-07-29T00:07:17;99971.50;;;21.32;100.00
11710;BME280;5911;51.036;6.972;2023-07-29T00:09:45;99972.13;;;21.34;100.00
11710;BME280;5911;51.036;6.972;2023-07-29T00:12:17;99968.00;;;21.31;100.00
11710;BME280;5911;51.036;6.972;2023-07-29T00:14:45;99962.84;;;21.30;100.00
11710;BME280;5911;51.036;6.972;2023-07-29T00:17:13;99959.13;;;21.31;100.00
11710;BME280;5911;51.036;6.972;2023-07-29T00:19:40;99958.91;;;21.32;100.00
11710;BME280;5911;51.036;6.972;2023-07-29T00:22:08;99950.03;;;21.32;100.00
11710;BME280;5911;51.036;6.972;2023-07-29T00:24:36;99949.22;;;21.31;100.00
11710;BME280;5911;51.036;6.972;2023-07-29T00:27:04;99952.94;;;21.30;100.00
11710;BME280;5911;51.036;6.972;2023-07-29T00:29:34;99940.34;;;21.31;100.00
11710;BME280;5911;51.036;6.972;2023-07-29T00:32:01;99940.75;;;21.28;100.00
11710;BME280;5911;51.036;6.972;2023-07-29T00:34:29;99947.16;;;21.27;100.00
11710;BME280;5911;51.036;6.972;2023-07-29T00:36:57;99933.97;;;21.12;100.00
11710;BME280;5911;51.036;6.972;2023-07-29T00:39:25;99941.38;;;21.17;100.00
11710;BME280;5911;51.036;6.972;2023-07-29T00:41:54;99940.78;;;21.21;100.00
11710;BME280;5911;51.036;6.972;2023-07-29T00:44:23;99937.66;;;21.24;100.00
11710;BME280;5911;51.036;6.972;2023-07-29T00:46:54;99949.06;;;21.20;100.00
11710;BME280;5911;51.036;6.972;2023-07-29T00:49:22;99939.16;;;21.20;100.00
11710;BME280;5911;51.036;6.972;2023-07-29T00:51:51;99942.22;;;21.24;100.00
11710;BME280;5911;51.036;6.972;2023-07-29T00:54:20;99942.00;;;21.25;100.00
11710;BME280;5911;51.036;6.972;2023-07-29T00:56:48;99947.16;;;21.27;100.00
11710;BME280;5911;51.036;6.972;2023-07-29T00:59:19;99932.28;;;21.24;100.00
11710;BME280;5911;51.036;6.972;2023-07-29T01:01:47;99933.56;;;21.22;100.00
11710;BME280;5911;51.036;6.972;2023-07-29T01:04:17;99929.44;;;21.19;100.00
11710;BME280;5911;51.036;6.972;2023-07-29T01:06:50;99922.84;;;21.22;100.00
11710;BME280;5911;51.036;6.972;2023-07-29T01:09:25;99919.72;;;21.25;100.00
11710;BME280;5911;51.036;6.972;2023-07-29T01:12:01;99911.66;;;21.25;100.00
11710;BME280;5911;51.036;6.972;2023-07-29T01:14:37;99900.97;;;21.05;100.00
11710;BME280;5911;51.036;6.972;2023-07-29T01:17:09;99919.50;;;21.26;100.00
11710;BME280;5911;51.036;6.972;2023-07-29T01:26:32;99907.53;;;21.16;100.00
11710;BME280;5911;51.036;6.972;2023-07-29T01:29:02;99903.63;;;21.12;100.00
11710;BME280;5911;51.036;6.972;2023-07-29T01:31:34;99905.06;;;21.14;100.00
11710;BME280;5911;51.036;6.972;2023-07-29T01:34:09;99908.41;;;21.23;100.00
11710;BME280;5911;51.036;6.972;2023-07-29T01:36:41;99916.22;;;21.18;100.00
11710;BME280;5911;51.036;6.972;2023-07-29T01:39:14;99908.56;;;21.15;100.00
11710;BME280;5911;51.036;6.972;2023-07-29T01:41:45;99910.03;;;21.17;100.00
11710;BME280;5911;51.036;6.972;2023-07-29T01:44:14;99885.31;;;21.02;100.00
11710;BME280;5911;51.036;6.972;2023-07-29T01:46:45;99903.84;;;21.17;100.00
11710;BME280;5911;51.036;6.972;2023-07-29T01:49:13;99897.06;;;21.08;100.00
11710;BME280;5911;51.036;6.972;2023-07-29T01:51:41;99902.19;;;21.16;100.00
11710;BME280;5911;51.036;6.972;2023-07-29T01:54:10;99903.00;;;21.16;100.00
11710;BME280;5911;51.036;6.972;2023-07-29T01:56:38;99899.09;;;21.19;100.00
11710;BME280;5911;51.036;6.972;2023-07-29T01:59:09;99900.13;;;21.18;100.00
11710;BME280;5911;51.036;6.972;2023-07-29T02:01:37;99905.47;;;21.18;100.00
11710;BME280;5911;51.036;6.972;2023-07-29T02:04:05;99905.47;;;21.18;100.00
11710;BME280;5911;51.036;6.972;2023-07-29T02:06:32;99907.97;;;21.13;100.00
11710;BME280;5911;51.036;6.972;2023-07-29T02:09:01;99912.91;;;21.09;100.00
11710;BME280;5911;51.036;6.972;2023-07-29T02:11:31;99904.66;;;21.11;100.00
11710;BME280;5911;51.036;6.972;2023-07-29T02:13:58;99903.84;;;21.17;100.00
11710;BME280;5911;51.036;6.972;2023-07-29T02:16:28;99904.28;;;21.20;100.00
11710;BME280;5911;51.036;6.972;2023-07-29T02:18:55;99898.06;;;21.13;100.00
11710;BME280;5911;51.036;6.972;2023-07-29T02:21:24;99889.19;;;21.13;100.00
11710;BME280;5911;51.036;6.972;2023-07-29T02:23:52;99890.22;;;21.12;100.00
11710;BME280;5911;51.036;6.972;2023-07-29T02:26:19;99891.09;;;21.05;100.00
11710;BME280;5911;51.036;6.972;2023-07-29T02:28:47;99903.03;;;21.03;100.00
11710;BME280;5911;51.036;6.972;2023-07-29T02:31:16;99900.56;;;21.08;100.00
11710;BME280;5911;51.036;6.972;2023-07-29T02:33:46;99899.28;;;21.11;100.00
11710;BME280;5911;51.036;6.972;2023-07-29T02:36:15;99888.16;;;21.14;100.00
11710;BME280;5911;51.036;6.972;2023-07-29T02:38:43;99891.44;;;21.16;100.00
11710;BME280;5911;51.036;6.972;2023-07-29T02:41:11;99888.56;;;21.17;100.00
11710;BME280;5911;51.036;6.972;2023-07-29T02:43:39;99894.75;;;21.18;100.00
11710;BME280;5911;51.036;6.972;2023-07-29T02:46:08;99891.44;;;21.16;100.00
11710;BME280;5911;51.036;6.972;2023-07-29T02:48:36;99900.13;;;21.18;100.00
11710;BME280;5911;51.036;6.972;2023-07-29T02:51:05;99905.91;;;21.15;100.00
11710;BME280;5911;51.036;6.972;2023-07-29T02:53:33;99907.13;;;21.12;100.00
11710;BME280;5911;51.036;6.972;2023-07-29T02:56:03;99913.31;;;21.13;100.00
11710;BME280;5911;51.036;6.972;2023-07-29T02:58:32;99903.63;;;21.12;100.00
11710;BME280;5911;51.036;6.972;2023-07-29T03:01:00;99911.06;;;21.10;100.00
11710;BME280;5911;51.036;6.972;2023-07-29T03:03:29;99898.94;;;21.00;100.00
11710;BME280;5911;51.036;6.972;2023-07-29T03:05:59;99900.19;;;20.91;100.00
11710;BME280;5911;51.036;6.972;2023-07-29T03:08:29;99883.69;;;20.81;100.00
11710;BME280;5911;51.036;6.972;2023-07-29T03:10:57;99894.38;;;21.01;100.00
11710;BME280;5911;51.036;6.972;2023-07-29T03:13:25;99897.28;;;20.99;100.00
11710;BME280;5911;51.036;6.972;2023-07-29T03:15:53;99901.84;;;20.92;100.00
11710;BME280;5911;51.036;6.972;2023-07-29T03:18:20;99901.22;;;20.90;100.00
11710;BME280;5911;51.036;6.972;2023-07-29T03:20:48;99904.09;;;20.95;100.00
11710;BME280;5911;51.036;6.972;2023-07-29T03:23:16;99902.66;;;20.86;100.00
11710;BME280;5911;51.036;6.972;2023-07-29T03:25:48;99901.22;;;20.90;100.00
11710;BME280;5911;51.036;6.972;2023-07-29T03:28:16;99887.00;;;20.83;100.00
11710;BME280;5911;51.036;6.972;2023-07-29T03:30:43;99885.97;;;20.91;100.00
11710;BME280;5911;51.036;6.972;2023-07-29T03:33:11;99889.03;;;20.94;100.00
11710;BME280;5911;51.036;6.972;2023-07-29T03:35:39;99887.00;;;20.90;100.00
11710;BME280;5911;51.036;6.972;2023-07-29T03:38:11;99886.16;;;20.89;100.00
11710;BME280;5911;51.036;6.972;2023-07-29T03:40:38;99872.72;;;20.96;100.00
11710;BME280;5911;51.036;6.972;2023-07-29T03:43:08;99873.19;;;20.86;100.00
11710;BME280;5911;51.036;6.972;2023-07-29T03:45:36;99870.50;;;20.86;100.00
11710;BME280;5911;51.036;6.972;2023-07-29T03:48:05;99862.44;;;20.86;100.00
11710;BME280;5911;51.036;6.972;2023-07-29T03:50:34;99862.66;;;20.91;100.00
11710;BME280;5911;51.036;6.972;2023-07-29T03:53:03;99873.38;;;20.91;100.00
11710;BME280;5911;51.036;6.972;2023-07-29T03:55:31;99870.50;;;20.86;100.00
11710;BME280;5911;51.036;6.972;2023-07-29T03:57:59;99879.38;;;20.87;100.00
11710;BME280;5911;51.036;6.972;2023-07-29T04:00:30;99887.84;;;20.77;100.00
11710;BME280;5911;51.036;6.972;2023-07-29T04:02:58;99891.13;;;20.79;100.00
11710;BME280;5911;51.036;6.972;2023-07-29T04:05:26;99893.59;;;20.87;100.00
11710;BME280;5911;51.036;6.972;2023-07-29T04:07:54;99887.81;;;20.90;100.00
11710;BME280;5911;51.036;6.972;2023-07-29T04:10:22;99885.56;;;20.87;100.00
11710;BME280;5911;51.036;6.972;2023-07-29T04:12:50;99895.66;;;20.85;100.00
11710;BME280;5911;51.036;6.972;2023-07-29T04:15:17;99895.66;;;20.79;100.00
11710;BME280;5911;51.036;6.972;2023-07-29T04:17:46;99905.75;;;20.83;100.00
11710;BME280;5911;51.036;6.972;2023-07-29T04:20:14;99902.28;;;20.76;100.00
11710;BME280;5911;51.036;6.972;2023-07-29T04:22:42;99900.63;;;20.75;100.00
11710;BME280;5911;51.036;6.972;2023-07-29T04:25:10;99900.63;;;20.75;100.00
11710;BME280;5911;51.036;6.972;2023-07-29T04:27:39;99906.78;;;20.82;100.00
11710;BME280;5911;51.036;6.972;2023-07-29T04:30:08;99906.78;;;20.82;100.00
11710;BME280;5911;51.036;6.972;2023-07-29T04:32:36;99908.03;;;20.80;100.00
11710;BME280;5911;51.036;6.972;2023-07-29T04:35:08;99906.38;;;20.79;100.00
11710;BME280;5911;51.036;6.972;2023-07-29T04:37:36;99909.31;;;20.77;100.00
11710;BME280;5911;51.036;6.972;2023-07-29T04:40:05;99903.94;;;20.77;100.00
11710;BME280;5911;51.036;6.972;2023-07-29T04:42:33;99908.84;;;20.80;100.00
11710;BME280;5911;51.036;6.972;2023-07-29T04:45:01;99916.50;;;20.70;100.00
11710;BME280;5911;51.036;6.972;2023-07-29T04:47:31;99906.63;;;20.57;100.00
11710;BME280;5911;51.036;6.972;2023-07-29T04:49:59;99937.75;;;20.71;100.00
11710;BME280;5911;51.036;6.972;2023-07-29T04:52:28;99934.88;;;20.73;100.00
11710;BME280;5911;51.036;6.972;2023-07-29T04:54:56;99940.84;;;20.75;100.00
11710;BME280;5911;51.036;6.972;2023-07-29T04:57:24;99923.94;;;20.68;100.00
11710;BME280;5911;51.036;6.972;2023-07-29T04:59:54;99928.50;;;20.61;100.00
11710;BME280;5911;51.036;6.972;2023-07-29T05:02:22;99916.72;;;20.55;100.00
11710;BME280;5911;51.036;6.972;2023-07-29T05:04:50;99918.16;;;20.64;100.00
11710;BME280;5911;51.036;6.972;2023-07-29T05:07:18;99912.81;;;20.78;100.00
11710;BME280;5911;51.036;6.972;2023-07-29T05:09:47;99913.84;;;20.70;100.00
11710;BME280;5911;51.036;6.972;2023-07-29T05:12:15;99911.78;;;20.65;100.00
11710;BME280;5911;51.036;6.972;2023-07-29T05:14:43;99917.97;;;20.73;100.00
11710;BME280;5911;51.036;6.972;2023-07-29T05:17:11;99915.06;;;20.74;100.00
11710;BME280;5911;51.036;6.972;2023-07-29T05:19:39;99913.19;;;20.81;100.00
11710;BME280;5911;51.036;6.972;2023-07-29T05:22:07;99918.97;;;20.78;100.00
11710;BME280;5911;51.036;6.972;2023-07-29T05:24:36;99924.94;;;20.80;100.00
11710;BME280;5911;51.036;6.972;2023-07-29T05:27:06;99914.63;;;20.84;100.00
11710;BME280;5911;51.036;6.972;2023-07-29T05:29:35;99910.50;;;20.81;100.00
11710;BME280;5911;51.036;6.972;2023-07-29T05:32:03;99913.19;;;20.81;100.00
11710;BME280;5911;51.036;6.972;2023-07-29T05:34:31;99931.97;;;20.81;100.00
11710;BME280;5911;51.036;6.972;2023-07-29T05:36:59;99936.09;;;20.84;100.00
11710;BME280;5911;51.036;6.972;2023-07-29T05:39:27;99946.38;;;20.80;100.00
11710;BME280;5911;51.036;6.972;2023-07-29T05:41:54;99941.84;;;20.81;100.00
11710;BME280;5911;51.036;6.972;2023-07-29T05:44:24;99948.25;;;20.86;100.00
11710;BME280;5911;51.036;6.972;2023-07-29T05:46:51;99943.31;;;20.77;100.00
11710;BME280;5911;51.036;6.972;2023-07-29T05:49:19;99949.50;;;20.77;100.00
11710;BME280;5911;51.036;6.972;2023-07-29T05:51:48;99961.06;;;20.71;100.00
11710;BME280;5911;51.036;6.972;2023-07-29T05:54:17;99968.88;;;20.66;100.00
11710;BME280;5911;51.036;6.972;2023-07-29T05:56:45;99961.66;;;20.66;100.00
11710;BME280;5911;51.036;6.972;2023-07-29T05:59:13;99962.06;;;20.63;100.00
11710;BME280;5911;51.036;6.972;2023-07-29T06:01:42;99980.03;;;20.76;100.00
11710;BME280;5911;51.036;6.972;2023-07-29T06:04:11;99975.09;;;20.73;100.00
11710;BME280;5911;51.036;6.972;2023-07-29T06:06:39;99979.00;;;20.77;100.00
11710;BME280;5911;51.036;6.972;2023-07-29T06:09:07;99996.94;;;20.57;100.00
11710;BME280;5911;51.036;6.972;2023-07-29T06:11:35;99991.34;;;20.65;100.00
11710;BME280;5911;51.036;6.972;2023-07-29T06:14:02;99983.09;;;20.53;100.00
11710;BME280;5911;51.036;6.972;2023-07-29T06:16:30;100000.41;;;20.64;100.00
11710;BME280;5911;51.036;6.972;2023-07-29T06:18:59;100004.16;;;20.69;100.00
11710;BME280;5911;51.036;6.972;2023-07-29T06:21:27;100000.41;;;20.64;100.00
11710;BME280;5911;51.036;6.972;2023-07-29T06:23:55;100004.56;;;20.66;100.00
11710;BME280;5911;51.036;6.972;2023-07-29T06:26:23;100000.03;;;20.60;100.00
11710;BME280;5911;51.036;6.972;2023-07-29T06:28:50;100029.09;;;20.57;100.00
11710;BME280;5911;51.036;6.972;2023-07-29T06:31:18;100026.41;;;20.57;100.00
11710;BME280;5911;51.036;6.972;2023-07-29T06:33:46;100032.00;;;20.62;100.00
11710;BME280;5911;51.036;6.972;2023-07-29T06:36:15;100024.34;;;20.65;100.00
11710;BME280;5911;51.036;6.972;2023-07-29T06:38:43;100030.94;;;20.56;100.00
11710;BME280;5911;51.036;6.972;2023-07-29T06:41:10;100031.78;;;20.57;100.00
11710;BME280;5911;51.036;6.972;2023-07-29T06:43:41;100021.03;;;20.63;100.00
11710;BME280;5911;51.036;6.972;2023-07-29T06:46:09;100015.28;;;20.60;100.00
11710;BME280;5911;51.036;6.972;2023-07-29T06:48:37;100027.22;;;20.51;100.00
11710;BME280;5911;51.036;6.972;2023-07-29T06:51:05;100016.91;;;20.48;100.00
11710;BME280;5911;51.036;6.972;2023-07-29T06:53:34;100021.84;;;20.51;100.00
11710;BME280;5911;51.036;6.972;2023-07-29T06:56:02;100016.13;;;20.60;100.00
11710;BME280;5911;51.036;6.972;2023-07-29T06:58:31;100011.16;;;20.64;100.00
11710;BME280;5911;51.036;6.972;2023-07-29T07:00:59;100014.88;;;20.76;100.00
11710;BME280;5911;51.036;6.972;2023-07-29T07:03:27;100016.94;;;20.74;100.00
11710;BME280;5911;51.036;6.972;2023-07-29T07:05:55;99969.09;;;20.51;100.00
11710;BME280;5911;51.036;6.972;2023-07-29T07:08:22;100026.19;;;20.78;100.00
11710;BME280;5911;51.036;6.972;2023-07-29T07:10:52;100014.44;;;20.79;100.00
11710;BME280;5911;51.036;6.972;2023-07-29T07:13:19;100019.19;;;20.84;100.00
11710;BME280;5911;51.036;6.972;2023-07-29T07:15:47;100023.13;;;20.81;100.00
11710;BME280;5911;51.036;6.972;2023-07-29T07:18:17;100004.16;;;20.76;100.00
11710;BME280;5911;51.036;6.972;2023-07-29T07:20:47;100014.47;;;20.86;100.00
11710;BME280;5911;51.036;6.972;2023-07-29T07:23:15;100026.00;;;20.86;100.00
11710;BME280;5911;51.036;6.972;2023-07-29T07:25:43;100021.06;;;20.83;100.00
11710;BME280;5911;51.036;6.972;2023-07-29T07:28:12;100022.72;;;20.84;100.00
11710;BME280;5911;51.036;6.972;2023-07-29T07:30:41;100029.50;;;20.80;100.00
11710;BME280;5911;51.036;6.972;2023-07-29T07:33:09;100017.13;;;20.79;100.00
11710;BME280;5911;51.036;6.972;2023-07-29T07:35:37;100030.56;;;20.86;100.00
11710;BME280;5911;51.036;6.972;2023-07-29T07:38:05;100030.97;;;20.89;100.00
11710;BME280;5911;51.036;6.972;2023-07-29T07:40:34;100045.81;;;20.98;100.00
11710;BME280;5911;51.036;6.972;2023-07-29T07:43:02;100045.81;;;20.98;100.00
11710;BME280;5911;51.036;6.972;2023-07-29T07:45:33;100049.13;;;21.07;100.00
11710;BME280;5911;51.036;6.972;2023-07-29T07:48:00;100041.28;;;21.05;100.00
11710;BME280;5911;51.036;6.972;2023-07-29T07:50:29;100048.69;;;21.10;100.00
11710;BME280;5911;51.036;6.972;2023-07-29T07:52:57;100042.31;;;21.04;100.00
11710;BME280;5911;51.036;6.972;2023-07-29T07:55:25;100047.69;;;20.91;100.00
11710;BME280;5911;51.036;6.972;2023-07-29T07:57:53;100048.28;;;20.93;100.00
11710;BME280;5911;51.036;6.972;2023-07-29T08:00:21;100055.09;;;21.02;100.00
11710;BME280;5911;51.036;6.972;2023-07-29T08:02:50;100043.75;;;20.87;100.00
11710;BME280;5911;51.036;6.972;2023-07-29T08:05:19;100049.13;;;20.87;100.00
11710;BME280;5911;51.036;6.972;2023-07-29T08:07:47;100060.66;;;20.81;100.00
11710;BME280;5911;51.036;6.972;2023-07-29T08:10:14;100042.09;;;20.86;100.00
11710;BME280;5911;51.036;6.972;2023-07-29T08:12:42;100044.38;;;20.89;100.00
11710;BME280;5911;51.036;6.972;2023-07-29T08:15:10;100045.19;;;20.90;100.00
11710;BME280;5911;51.036;6.972;2023-07-29T08:17:38;100045.00;;;20.91;100.00
11710;BME280;5911;51.036;6.972;2023-07-29T08:20:07;100041.06;;;21.00;100.00
11710;BME280;5911;51.036;6.972;2023-07-29T08:22:36;100034.28;;;20.91;100.00
11710;BME280;5911;51.036;6.972;2023-07-29T08:25:04;100034.69;;;20.88;100.00
11710;BME280;5911;51.036;6.972;2023-07-29T08:27:33;100039.81;;;20.83;100.00
11710;BME280;5911;51.036;6.972;2023-07-29T08:30:01;100039.22;;;20.88;100.00
11710;BME280;5911;51.036;6.972;2023-07-29T08:32:29;100045.41;;;21.01;100.00
11710;BME280;5911;51.036;6.972;2023-07-29T08:34:56;100028.91;;;21.04;100.00
11710;BME280;5911;51.036;6.972;2023-07-29T08:37:26;100036.53;;;21.08;100.00
11710;BME280;5911;51.036;6.972;2023-07-29T08:39:54;100043.13;;;21.12;100.00
11710;BME280;5911;51.036;6.972;2023-07-29T08:42:23;100048.31;;;21.20;100.00
11710;BME280;5911;51.036;6.972;2023-07-29T08:44:52;100037.56;;;21.26;100.00
11710;BME280;5911;51.036;6.972;2023-07-29T08:47:21;100047.47;;;21.32;100.00
11710;BME280;5911;51.036;6.972;2023-07-29T08:49:50;100055.06;;;21.42;100.00
11710;BME280;5911;51.036;6.972;2023-07-29T08:52:20;100042.09;;;21.26;100.00
11710;BME280;5911;51.036;6.972;2023-07-29T08:54:49;100047.03;;;21.29;100.00
11710;BME280;5911;51.036;6.972;2023-07-29T08:57:17;100049.13;;;21.20;100.00
11710;BME280;5911;51.036;6.972;2023-07-29T08:59:47;100059.03;;;21.33;100.00
11710;BME280;5911;51.036;6.972;2023-07-29T09:02:15;100047.47;;;21.32;100.00
11710;BME280;5911;51.036;6.972;2023-07-29T09:04:44;100060.84;;;21.39;100.00
11710;BME280;5911;51.036;6.972;2023-07-29T09:07:12;100053.66;;;21.33;100.00
11710;BME280;5911;51.036;6.972;2023-07-29T09:09:40;100057.81;;;21.22;100.00
11710;BME280;5911;51.036;6.972;2023-07-29T09:12:10;100054.50;;;21.20;100.00
11710;BME280;5911;51.036;6.972;2023-07-29T09:14:38;100052.00;;;21.19;100.00
11710;BME280;5911;51.036;6.972;2023-07-29T09:17:07;100063.34;;;21.27;100.00
11710;BME280;5911;51.036;6.972;2023-07-29T09:19:38;100070.16;;;21.30;100.00
11710;BME280;5911;51.036;6.972;2023-07-29T09:22:17;100071.19;;;21.35;100.00
11710;BME280;5911;51.036;6.972;2023-07-29T09:24:45;100063.97;;;21.36;100.00
11710;BME280;5911;51.036;6.972;2023-07-29T09:27:24;100057.13;;;21.40;100.00
11710;BME280;5911;51.036;6.972;2023-07-29T09:29:55;100068.91;;;21.52;100.00
11710;BME280;5911;51.036;6.972;2023-07-29T09:32:24;100069.72;;;21.53;100.00
11710;BME280;5911;51.036;6.972;2023-07-29T09:34:52;100062.72;;;21.52;100.00
11710;BME280;5911;51.036;6.972;2023-07-29T09:37:21;100060.19;;;21.57;100.00
11710;BME280;5911;51.036;6.972;2023-07-29T09:39:51;100064.13;;;21.67;100.00
11710;BME280;5911;51.036;6.972;2023-07-29T09:42:22;100064.69;;;21.76;100.00
11710;BME280;5911;51.036;6.972;2023-07-29T09:44:51;100065.31;;;21.71;100.00
11710;BME280;5911;51.036;6.972;2023-07-29T09:47:21;100057.06;;;21.80;100.00
11710;BME280;5911;51.036;6.972;2023-07-29T09:49:49;100064.84;;;21.94;100.00
11710;BME280;5911;51.036;6.972;2023-07-29T09:52:18;100072.47;;;22.04;100.00
11710;BME280;5911;51.036;6.972;2023-07-29T09:54:46;100060.50;;;21.93;100.00
11710;BME280;5911;51.036;6.972;2023-07-29T09:57:18;100067.13;;;21.91;100.00
11710;BME280;5911;51.036;6.972;2023-07-29T09:59:54;100056.81;;;21.88;100.00
11710;BME280;5911;51.036;6.972;2023-07-29T10:02:23;100062.59;;;21.85;100.00
11710;BME280;5911;51.036;6.972;2023-07-29T10:04:54;100066.72;;;21.87;100.00
11710;BME280;5911;51.036;6.972;2023-07-29T10:07:22;100075.81;;;21.86;100.00
11710;BME280;5911;51.036;6.972;2023-07-29T10:09:52;100077.03;;;21.90;100.00
11710;BME280;5911;51.036;6.972;2023-07-29T10:12:20;100071.84;;;22.02;100.00
11710;BME280;5911;51.036;6.972;2023-07-29T10:15:02;100070.34;;;22.19;100.00
11710;BME280;5911;51.036;6.972;2023-07-29T10:17:30;100067.00;;;22.30;100.00
11710;BME280;5911;51.036;6.972;2023-07-29T10:20:01;100076.09;;;22.29;100.00
11710;BME280;5911;51.036;6.972;2023-07-29T10:22:34;100070.09;;;22.27;100.00
11710;BME280;5911;51.036;6.972;2023-07-29T10:25:04;100079.66;;;22.17;100.00
11710;BME280;5911;51.036;6.972;2023-07-29T10:27:38;100080.94;;;22.14;100.00
11710;BME280;5911;51.036;6.972;2023-07-29T10:30:11;100080.34;;;21.99;100.00
11710;BME280;5911;51.036;6.972;2023-07-29T10:32:42;100081.16;;;21.93;100.00
11710;BME280;5911;51.036;6.972;2023-07-29T10:35:11;100072.91;;;21.88;100.00
11710;BME280;5911;51.036;6.972;2023-07-29T10:37:39;100076.06;;;21.78;100.00
11710;BME280;5911;51.036;6.972;2023-07-29T10:40:09;100072.53;;;21.77;100.00
11710;BME280;5911;51.036;6.972;2023-07-29T10:42:37;100074.19;;;21.72;100.00
11710;BME280;5911;51.036;6.972;2023-07-29T10:45:20;100080.41;;;21.72;100.00
11710;BME280;5911;51.036;6.972;2023-07-29T10:47:48;100081.44;;;21.71;100.00
11710;BME280;5911;51.036;6.972;2023-07-29T10:50:18;100079.97;;;21.75;100.00
11710;BME280;5911;51.036;6.972;2023-07-29T10:52:49;100081.63;;;21.76;100.00
11710;BME280;5911;51.036;6.972;2023-07-29T10:55:25;100072.53;;;21.77;100.00
11710;BME280;5911;51.036;6.972;2023-07-29T10:58:05;100075.44;;;21.69;100.00
11710;BME280;5911;51.036;6.972;2023-07-29T11:00:35;100083.94;;;21.66;100.00
11710;BME280;5911;51.036;6.972;2023-07-29T11:03:05;100074.41;;;21.70;100.00
11710;BME280;5911;51.036;6.972;2023-07-29T11:05:45;100074.19;;;21.79;100.00
11710;BME280;5911;51.036;6.972;2023-07-29T11:08:17;100065.50;;;21.83;100.00
11710;BME280;5911;51.036;6.972;2023-07-29T11:10:57;100058.44;;;21.89;100.00
11710;BME280;5911;51.036;6.972;2023-07-29T11:13:27;100066.47;;;22.02;100.00
11710;BME280;5911;51.036;6.972;2023-07-29T11:15:57;100068.63;;;22.31;100.00
11710;BME280;5911;51.036;6.972;2023-07-29T11:18:27;100065.88;;;22.76;100.00
11710;BME280;5911;51.036;6.972;2023-07-29T11:20:56;100069.22;;;22.71;100.00
11710;BME280;5911;51.036;6.972;2023-07-29T11:23:29;100054.84;;;22.53;100.00
11710;BME280;5911;51.036;6.972;2023-07-29T11:25:58;100066.72;;;22.76;100.00
11710;BME280;5911;51.036;6.972;2023-07-29T11:28:26;100067.09;;;23.30;100.00
11710;BME280;5911;51.036;6.972;2023-07-29T11:30:54;100065.06;;;23.68;100.00
11710;BME280;5911;51.036;6.972;2023-07-29T11:33:27;100071.06;;;23.89;100.00
11710;BME280;5911;51.036;6.972;2023-07-29T11:35:55;100057.31;;;23.97;100.00
11710;BME280;5911;51.036;6.972;2023-07-29T11:38:23;100066.06;;;24.40;100.00
11710;BME280;5911;51.036;6.972;2023-07-29T11:40:55;100057.44;;;24.62;100.00
11710;BME280;5911;51.036;6.972;2023-07-29T11:43:23;100057.41;;;24.92;100.00
11710;BME280;5911;51.036;6.972;2023-07-29T11:45:51;100059.94;;;25.28;98.20
11710;BME280;5911;51.036;6.972;2023-07-29T11:48:28;100055.09;;;25.42;93.43
11710;BME280;5911;51.036;6.972;2023-07-29T11:50:55;100060.84;;;25.57;95.33
11710;BME280;5911;51.036;6.972;2023-07-29T11:53:27;100070.03;;;25.44;94.34
11710;BME280;5911;51.036;6.972;2023-07-29T11:55:55;100068.84;;;25.05;96.38
11710;BME280;5911;51.036;6.972;2023-07-29T11:58:23;100051.94;;;24.57;96.73
11710;BME280;5911;51.036;6.972;2023-07-29T12:00:51;100065.09;;;24.35;96.66
11710;BME280;5911;51.036;6.972;2023-07-29T12:03:19;100065.06;;;24.05;97.44
11710;BME280;5911;51.036;6.972;2023-07-29T12:05:50;100067.03;;;23.98;99.64
11710;BME280;5911;51.036;6.972;2023-07-29T12:08:18;100062.53;;;23.92;99.92
11710;BME280;5911;51.036;6.972;2023-07-29T12:10:46;100052.03;;;23.83;99.61
11710;BME280;5911;51.036;6.972;2023-07-29T12:13:14;100059.84;;;23.92;100.00
11710;BME280;5911;51.036;6.972;2023-07-29T12:15:42;100051.75;;;24.10;100.00
11710;BME280;5911;51.036;6.972;2023-07-29T12:18:12;100053.84;;;24.08;100.00
11710;BME280;5911;51.036;6.972;2023-07-29T12:20:40;100053.06;;;24.01;100.00
11710;BME280;5911;51.036;6.972;2023-07-29T12:23:09;100033.09;;;24.08;100.00
11710;BME280;5911;51.036;6.972;2023-07-29T12:25:37;100054.47;;;24.22;100.00
11710;BME280;5911;51.036;6.972;2023-07-29T12:28:06;100050.34;;;24.37;100.00
11710;BME280;5911;51.036;6.972;2023-07-29T12:30:34;100054.13;;;24.89;100.00
11710;BME280;5911;51.036;6.972;2023-07-29T12:33:08;100037.16;;;25.12;99.65
11710;BME280;5911;51.036;6.972;2023-07-29T12:35:36;100037.00;;;25.54;97.74
11710;BME280;5911;51.036;6.972;2023-07-29T12:38:05;100019.13;;;25.76;95.76
11710;BME280;5911;51.036;6.972;2023-07-29T12:40:38;100037.66;;;26.24;90.36
11710;BME280;5911;51.036;6.972;2023-07-29T12:43:06;100048.03;;;26.44;85.26
11710;BME280;5911;51.036;6.972;2023-07-29T12:45:35;100047.84;;;26.79;82.45
11710;BME280;5911;51.036;6.972;2023-07-29T12:48:06;100036.94;;;26.57;84.71
11710;BME280;5911;51.036;6.972;2023-07-29T12:50:34;100038.28;;;26.43;82.06
11710;BME280;5911;51.036;6.972;2023-07-29T12:53:02;100040.97;;;25.86;82.54
11710;BME280;5911;51.036;6.972;2023-07-29T12:55:29;100037.38;;;25.98;86.75
11710;BME280;5911;51.036;6.972;2023-07-29T12:57:58;100041.53;;;25.88;81.88
11710;BME280;5911;51.036;6.972;2023-07-29T13:00:27;100035.94;;;25.55;81.93
11710;BME280;5911;51.036;6.972;2023-07-29T13:02:55;100024.81;;;25.28;84.94
11710;BME280;5911;51.036;6.972;2023-07-29T13:05:23;100010.53;;;25.04;85.23
11710;BME280;5911;51.036;6.972;2023-07-29T13:07:51;100015.25;;;24.90;83.89
11710;BME280;5911;51.036;6.972;2023-07-29T13:10:21;100017.50;;;24.70;87.20
11710;BME280;5911;51.036;6.972;2023-07-29T13:12:56;100019.56;;;24.57;87.51